sensor_id;sensor_type;location;lat;lon;timestamp;P1;durP1;ratioP1;P2;durP2;ratioP2
57893;SDS011;43710;47.460;19.034;2023-06-22T04:29:58;17.52;;;8.30;;
57893;SDS011;43710;47.460;19.034;2023-06-22T04:33:02;13.60;;;7.55;;
57893;SDS011;43710;47.460;19.034;2023-06-22T04:36:05;12.37;;;7.37;;
57893;SDS011;43710;47.460;19.034;2023-06-22T04:39:10;12.95;;;8.05;;
57893;SDS011;43710;47.460;19.034;2023-06-22T04:42:13;16.60;;;8.00;;
57893;SDS011;43710;47.460;19.034;2023-06-22T04:45:15;17.30;;;7.85;;
57893;SDS011;43710;47.460;19.034;2023-06-22T04:48:18;16.45;;;7.75;;
57893;SDS011;43710;47.460;19.034;2023-06-22T04:51:20;20.02;;;7.95;;
57893;SDS011;43710;47.460;19.034;2023-06-22T04:54:23;12.50;;;7.22;;
57893;SDS011;43710;47.460;19.034;2023-06-22T04:57:26;12.07;;;7.50;;
57893;SDS011;43710;47.460;19.034;2023-06-22T05:00:34;14.48;;;7.40;;
57893;SDS011;43710;47.460;19.034;2023-06-22T05:03:38;18.98;;;7.28;;
57893;SDS011;43710;47.460;19.034;2023-06-22T05:06:44;14.40;;;7.43;;
57893;SDS011;43710;47.460;19.034;2023-06-22T05:09:47;18.77;;;7.57;;
57893;SDS011;43710;47.460;19.034;2023-06-22T05:12:49;17.05;;;7.78;;
57893;SDS011;43710;47.460;19.034;2023-06-22T05:15:52;19.17;;;7.93;;
57893;SDS011;43710;47.460;19.034;2023-06-22T05:18:54;14.38;;;8.13;;
57893;SDS011;43710;47.460;19.034;2023-06-22T05:21:57;16.55;;;7.72;;
57893;SDS011;43710;47.460;19.034;2023-06-22T05:24:59;14.63;;;7.25;;
57893;SDS011;43710;47.460;19.034;2023-06-22T05:28:02;16.45;;;7.47;;
57893;SDS011;43710;47.460;19.034;2023-06-22T05:31:15;16.20;;;8.18;;
57893;SDS011;43710;47.460;19.034;2023-06-22T05:34:18;17.27;;;7.90;;
57893;SDS011;43710;47.460;19.034;2023-06-22T05:37:20;14.38;;;7.55;;
57893;SDS011;43710;47.460;19.034;2023-06-22T05:40:23;13.48;;;8.50;;
57893;SDS011;43710;47.460;19.034;2023-06-22T05:43:25;17.27;;;7.28;;
57893;SDS011;43710;47.460;19.034;2023-06-22T05:46:28;16.70;;;7.65;;
57893;SDS011;43710;47.460;19.034;2023-06-22T05:49:30;12.75;;;6.93;;
57893;SDS011;43710;47.460;19.034;2023-06-22T05:52:34;16.10;;;7.50;;
57893;SDS011;43710;47.460;19.034;2023-06-22T05:55:37;12.73;;;7.85;;
57893;SDS011;43710;47.460;19.034;2023-06-22T05:58:39;15.57;;;7.18;;
57893;SDS011;43710;47.460;19.034;2023-06-22T06:01:41;16.73;;;7.55;;
57893;SDS011;43710;47.460;19.034;2023-06-22T06:04:44;19.25;;;6.70;;
57893;SDS011;43710;47.460;19.034;2023-06-22T06:07:46;20.10;;;7.37;;
57893;SDS011;43710;47.460;19.034;2023-06-22T06:10:49;20.23;;;7.57;;
57893;SDS011;43710;47.460;19.034;2023-06-22T06:13:51;14.27;;;6.68;;
57893;SDS011;43710;47.460;19.034;2023-06-22T06:16:54;15.57;;;6.90;;
57893;SDS011;43710;47.460;19.034;2023-06-22T06:19:56;15.57;;;6.87;;
57893;SDS011;43710;47.460;19.034;2023-06-22T06:22:59;21.33;;;7.28;;
57893;SDS011;43710;47.460;19.034;2023-06-22T06:26:03;14.43;;;6.07;;
57893;SDS011;43710;47.460;19.034;2023-06-22T06:29:09;15.07;;;6.22;;
57893;SDS011;43710;47.460;19.034;2023-06-22T06:32:11;15.93;;;6.03;;
57893;SDS011;43710;47.460;19.034;2023-06-22T06:35:15;20.67;;;6.82;;
57893;SDS011;43710;47.460;19.034;2023-06-22T06:38:18;16.37;;;5.95;;
57893;SDS011;43710;47.460;19.034;2023-06-22T06:41:20;16.60;;;6.60;;
57893;SDS011;43710;47.460;19.034;2023-06-22T06:44:23;12.70;;;6.15;;
57893;SDS011;43710;47.460;19.034;2023-06-22T06:47:25;11.93;;;5.62;;
57893;SDS011;43710;47.460;19.034;2023-06-22T06:50:27;16.67;;;5.55;;
57893;SDS011;43710;47.460;19.034;2023-06-22T06:53:31;16.67;;;6.12;;
57893;SDS011;43710;47.460;19.034;2023-06-22T06:56:33;14.10;;;5.93;;
57893;SDS011;43710;47.460;19.034;2023-06-22T06:59:36;16.33;;;5.37;;
57893;SDS011;43710;47.460;19.034;2023-06-22T07:02:39;16.02;;;6.37;;
57893;SDS011;43710;47.460;19.034;2023-06-22T07:05:43;12.80;;;5.15;;
57893;SDS011;43710;47.460;19.034;2023-06-22T07:08:45;15.90;;;5.35;;
57893;SDS011;43710;47.460;19.034;2023-06-22T07:11:48;15.45;;;5.15;;
57893;SDS011;43710;47.460;19.034;2023-06-22T07:14:51;21.02;;;6.32;;
57893;SDS011;43710;47.460;19.034;2023-06-22T07:17:54;16.48;;;5.60;;
57893;SDS011;43710;47.460;19.034;2023-06-22T07:20:56;17.42;;;5.28;;
57893;SDS011;43710;47.460;19.034;2023-06-22T07:23:59;13.18;;;5.78;;
57893;SDS011;43710;47.460;19.034;2023-06-22T07:27:01;16.10;;;5.20;;
57893;SDS011;43710;47.460;19.034;2023-06-22T07:30:05;13.82;;;5.20;;
57893;SDS011;43710;47.460;19.034;2023-06-22T07:33:08;13.93;;;5.07;;
57893;SDS011;43710;47.460;19.034;2023-06-22T07:36:11;13.13;;;5.43;;
57893;SDS011;43710;47.460;19.034;2023-06-22T07:39:14;11.85;;;4.90;;
57893;SDS011;43710;47.460;19.034;2023-06-22T07:42:16;13.07;;;4.95;;
57893;SDS011;43710;47.460;19.034;2023-06-22T07:45:21;13.70;;;5.50;;
57893;SDS011;43710;47.460;19.034;2023-06-22T07:48:23;14.13;;;5.53;;
57893;SDS011;43710;47.460;19.034;2023-06-22T07:51:25;11.68;;;4.82;;
57893;SDS011;43710;47.460;19.034;2023-06-22T07:54:29;12.18;;;5.45;;
57893;SDS011;43710;47.460;19.034;2023-06-22T07:57:31;11.23;;;5.18;;
57893;SDS011;43710;47.460;19.034;2023-06-22T08:00:37;10.30;;;5.37;;
57893;SDS011;43710;47.460;19.034;2023-06-22T08:03:39;15.88;;;5.70;;
57893;SDS011;43710;47.460;19.034;2023-06-22T08:06:42;9.13;;;5.05;;
57893;SDS011;43710;47.460;19.034;2023-06-22T08:09:45;9.30;;;6.22;;
57893;SDS011;43710;47.460;19.034;2023-06-22T08:12:49;8.57;;;6.00;;
57893;SDS011;43710;47.460;19.034;2023-06-22T08:15:53;10.32;;;7.43;;
57893;SDS011;43710;47.460;19.034;2023-06-22T08:18:56;11.68;;;8.00;;
57893;SDS011;43710;47.460;19.034;2023-06-22T08:21:58;11.40;;;8.05;;
57893;SDS011;43710;47.460;19.034;2023-06-22T08:25:00;11.73;;;9.20;;
57893;SDS011;43710;47.460;19.034;2023-06-22T08:28:03;18.55;;;8.57;;
57893;SDS011;43710;47.460;19.034;2023-06-22T08:31:06;11.88;;;8.02;;
57893;SDS011;43710;47.460;19.034;2023-06-22T08:34:09;14.70;;;8.05;;
57893;SDS011;43710;47.460;19.034;2023-06-22T08:37:11;12.95;;;8.55;;
57893;SDS011;43710;47.460;19.034;2023-06-22T08:40:14;12.35;;;8.60;;
57893;SDS011;43710;47.460;19.034;2023-06-22T08:43:16;12.77;;;8.23;;
57893;SDS011;43710;47.460;19.034;2023-06-22T08:46:19;12.15;;;8.68;;
57893;SDS011;43710;47.460;19.034;2023-06-22T08:49:25;14.85;;;7.97;;
57893;SDS011;43710;47.460;19.034;2023-06-22T08:52:27;17.12;;;8.27;;
57893;SDS011;43710;47.460;19.034;2023-06-22T08:55:29;13.35;;;8.80;;
57893;SDS011;43710;47.460;19.034;2023-06-22T08:58:32;12.13;;;8.88;;
57893;SDS011;43710;47.460;19.034;2023-06-22T09:01:34;13.77;;;8.43;;
57893;SDS011;43710;47.460;19.034;2023-06-22T09:04:37;12.85;;;8.38;;
57893;SDS011;43710;47.460;19.034;2023-06-22T09:07:40;13.93;;;8.48;;
57893;SDS011;43710;47.460;19.034;2023-06-22T09:10:42;13.20;;;9.05;;
57893;SDS011;43710;47.460;19.034;2023-06-22T09:13:45;11.45;;;8.98;;
57893;SDS011;43710;47.460;19.034;2023-06-22T09:16:48;12.80;;;9.23;;
57893;SDS011;43710;47.460;19.034;2023-06-22T09:19:50;13.18;;;9.40;;
57893;SDS011;43710;47.460;19.034;2023-06-22T09:22:53;12.25;;;9.05;;
57893;SDS011;43710;47.460;19.034;2023-06-22T09:25:55;15.00;;;9.38;;
57893;SDS011;43710;47.460;19.034;2023-06-22T09:28:59;17.48;;;9.82;;
57893;SDS011;43710;47.460;19.034;2023-06-22T09:32:02;20.70;;;9.88;;
57893;SDS011;43710;47.460;19.034;2023-06-22T09:35:05;15.07;;;9.52;;
57893;SDS011;43710;47.460;19.034;2023-06-22T09:38:08;13.82;;;9.15;;
57893;SDS011;43710;47.460;19.034;2023-06-22T09:41:11;17.42;;;9.48;;
57893;SDS011;43710;47.460;19.034;2023-06-22T09:44:13;13.80;;;9.18;;
57893;SDS011;43710;47.460;19.034;2023-06-22T09:47:15;15.57;;;9.35;;
57893;SDS011;43710;47.460;19.034;2023-06-22T09:50:18;11.90;;;10.15;;
57893;SDS011;43710;47.460;19.034;2023-06-22T09:53:20;18.08;;;9.55;;
57893;SDS011;43710;47.460;19.034;2023-06-22T09:56:22;18.58;;;10.13;;
57893;SDS011;43710;47.460;19.034;2023-06-22T09:59:25;14.05;;;9.93;;
57893;SDS011;43710;47.460;19.034;2023-06-22T10:02:27;13.57;;;9.77;;
57893;SDS011;43710;47.460;19.034;2023-06-22T10:05:31;14.43;;;10.38;;
57893;SDS011;43710;47.460;19.034;2023-06-22T10:08:34;10.30;;;9.15;;
57893;SDS011;43710;47.460;19.034;2023-06-22T10:11:37;13.38;;;9.60;;
57893;SDS011;43710;47.460;19.034;2023-06-22T10:14:40;16.37;;;9.77;;
57893;SDS011;43710;47.460;19.034;2023-06-22T10:17:42;15.18;;;9.30;;
57893;SDS011;43710;47.460;19.034;2023-06-22T10:20:47;15.05;;;10.27;;
57893;SDS011;43710;47.460;19.034;2023-06-22T10:23:50;11.95;;;9.50;;
57893;SDS011;43710;47.460;19.034;2023-06-22T10:26:53;16.33;;;9.90;;
57893;SDS011;43710;47.460;19.034;2023-06-22T10:29:56;16.65;;;9.95;;
57893;SDS011;43710;47.460;19.034;2023-06-22T10:32:58;13.45;;;10.15;;
57893;SDS011;43710;47.460;19.034;2023-06-22T10:36:00;13.32;;;10.00;;
57893;SDS011;43710;47.460;19.034;2023-06-22T10:39:03;14.45;;;10.35;;
57893;SDS011;43710;47.460;19.034;2023-06-22T10:42:05;16.30;;;10.05;;
57893;SDS011;43710;47.460;19.034;2023-06-22T10:45:08;23.87;;;9.80;;
57893;SDS011;43710;47.460;19.034;2023-06-22T10:48:10;14.95;;;9.85;;
57893;SDS011;43710;47.460;19.034;2023-06-22T10:51:13;19.83;;;10.07;;
57893;SDS011;43710;47.460;19.034;2023-06-22T10:54:15;13.05;;;9.60;;
57893;SDS011;43710;47.460;19.034;2023-06-22T10:57:21;18.17;;;9.50;;
57893;SDS011;43710;47.460;19.034;2023-06-22T11:00:24;16.87;;;9.88;;
57893;SDS011;43710;47.460;19.034;2023-06-22T11:03:26;14.00;;;9.90;;
57893;SDS011;43710;47.460;19.034;2023-06-22T11:06:30;12.90;;;10.05;;
57893;SDS011;43710;47.460;19.034;2023-06-22T11:09:33;12.65;;;9.50;;
57893;SDS011;43710;47.460;19.034;2023-06-22T11:12:35;10.75;;;9.65;;
57893;SDS011;43710;47.460;19.034;2023-06-22T11:15:38;15.40;;;9.85;;
57893;SDS011;43710;47.460;19.034;2023-06-22T11:18:41;11.55;;;9.85;;
57893;SDS011;43710;47.460;19.034;2023-06-22T11:21:43;14.75;;;9.18;;
57893;SDS011;43710;47.460;19.034;2023-06-22T11:24:46;15.07;;;9.52;;
57893;SDS011;43710;47.460;19.034;2023-06-22T11:27:48;13.52;;;9.55;;
57893;SDS011;43710;47.460;19.034;2023-06-22T11:30:51;14.52;;;9.93;;
57893;SDS011;43710;47.460;19.034;2023-06-22T12:36:02;15.70;;;8.75;;
57893;SDS011;43710;47.460;19.034;2023-06-22T12:39:06;18.60;;;9.85;;
57893;SDS011;43710;47.460;19.034;2023-06-22T12:42:09;14.52;;;8.60;;
57893;SDS011;43710;47.460;19.034;2023-06-22T12:45:13;12.60;;;8.82;;
57893;SDS011;43710;47.460;19.034;2023-06-22T12:48:16;13.52;;;8.82;;
57893;SDS011;43710;47.460;19.034;2023-06-22T12:51:22;12.02;;;8.70;;
57893;SDS011;43710;47.460;19.034;2023-06-22T12:54:24;12.35;;;8.65;;
57893;SDS011;43710;47.460;19.034;2023-06-22T12:57:27;13.77;;;8.77;;
57893;SDS011;43710;47.460;19.034;2023-06-22T13:00:29;13.88;;;9.48;;
57893;SDS011;43710;47.460;19.034;2023-06-22T13:03:32;12.45;;;9.02;;
57893;SDS011;43710;47.460;19.034;2023-06-22T13:06:34;11.12;;;9.30;;
57893;SDS011;43710;47.460;19.034;2023-06-22T13:09:36;15.52;;;9.00;;
57893;SDS011;43710;47.460;19.034;2023-06-22T13:12:39;13.20;;;8.90;;
57893;SDS011;43710;47.460;19.034;2023-06-22T13:15:41;15.55;;;9.05;;
57893;SDS011;43710;47.460;19.034;2023-06-22T13:18:43;14.63;;;9.50;;
57893;SDS011;43710;47.460;19.034;2023-06-22T13:21:46;15.70;;;9.38;;
57893;SDS011;43710;47.460;19.034;2023-06-22T13:24:48;18.62;;;10.45;;
57893;SDS011;43710;47.460;19.034;2023-06-22T13:27:50;16.35;;;10.38;;
57893;SDS011;43710;47.460;19.034;2023-06-22T13:30:53;16.92;;;10.18;;
57893;SDS011;43710;47.460;19.034;2023-06-22T13:33:55;13.18;;;10.00;;
57893;SDS011;43710;47.460;19.034;2023-06-22T13:36:57;20.27;;;10.05;;
57893;SDS011;43710;47.460;19.034;2023-06-22T13:40:00;12.75;;;9.98;;
57893;SDS011;43710;47.460;19.034;2023-06-22T13:43:04;12.25;;;9.52;;
57893;SDS011;43710;47.460;19.034;2023-06-22T13:46:07;16.42;;;9.63;;
57893;SDS011;43710;47.460;19.034;2023-06-22T13:49:09;14.57;;;9.93;;
57893;SDS011;43710;47.460;19.034;2023-06-22T13:52:12;17.80;;;9.77;;
57893;SDS011;43710;47.460;19.034;2023-06-22T13:55:14;13.02;;;9.40;;
57893;SDS011;43710;47.460;19.034;2023-06-22T13:58:17;19.58;;;9.60;;
57893;SDS011;43710;47.460;19.034;2023-06-22T14:01:21;17.13;;;9.50;;
57893;SDS011;43710;47.460;19.034;2023-06-22T14:04:24;17.70;;;9.68;;
57893;SDS011;43710;47.460;19.034;2023-06-22T14:07:26;20.85;;;9.73;;
57893;SDS011;43710;47.460;19.034;2023-06-22T14:10:29;14.25;;;9.40;;
57893;SDS011;43710;47.460;19.034;2023-06-22T14:13:31;15.77;;;9.35;;
57893;SDS011;43710;47.460;19.034;2023-06-22T14:16:33;17.40;;;10.43;;
